Time;durP1;ratioP1;P1;durP2;ratioP2;P2;SDS_P1;SDS_P2;PMS_P1;PMS_P2;Temp;Humidity;BMP_temperature;BMP_pressure;BME280_temperature;BME280_humidity;BME280_pressure;Samples;Min_cycle;Max_cycle;Signal;HPM_P1;HPM_P2
2021/01/01 00:00:37;;;;;;;112.72;60.42;;;;;;;1.51;95.97;97654.69;4985413;28;20544;-71
2021/01/01 00:03:02;;;;;;;119.30;62.40;;;;;;;1.47;95.89;97647.91;4984873;28;20038;-71
2021/01/01 00:05:29;;;;;;;131.05;65.13;;;;;;;1.47;96.19;97645.34;4985506;28;20406;-70
2021/01/01 00:07:54;;;;;;;138.23;71.60;;;;;;;1.58;95.57;97650.44;4985239;28;20432;-71
2021/01/01 00:10:20;;;;;;;146.40;78.30;;;;;;;1.57;95.67;97649.59;4985338;28;20030;-70
2021/01/01 00:12:45;;;;;;;137.88;72.20;;;;;;;1.74;95.85;97653.00;4999745;28;20099;-71
2021/01/01 00:15:12;;;;;;;141.07;73.57;;;;;;;1.66;95.42;97644.47;4984870;28;20396;-71
2021/01/01 00:17:38;;;;;;;130.80;69.90;;;;;;;1.65;95.29;97650.44;4984900;28;20072;-71
2021/01/01 00:20:06;;;;;;;117.70;63.58;;;;;;;1.66;95.13;97648.72;4985897;28;20121;-71
2021/01/01 00:22:32;;;;;;;118.47;63.33;;;;;;;1.63;95.35;97639.38;4984627;28;20030;-71
2021/01/01 00:24:57;;;;;;;114.40;58.70;;;;;;;1.64;95.39;97642.75;4985344;28;20030;-71
2021/01/01 00:27:22;;;;;;;102.70;59.40;;;;;;;1.69;95.77;97634.28;4984691;28;20026;-71
2021/01/01 00:29:48;;;;;;;124.28;66.30;;;;;;;1.73;96.01;97630.84;4985037;28;20036;-71
2021/01/01 00:32:13;;;;;;;115.90;62.88;;;;;;;1.58;96.23;97633.41;4984663;28;20399;-71
2021/01/01 00:34:39;;;;;;;118.38;61.05;;;;;;;1.50;96.26;97627.50;4984837;28;20046;-70
2021/01/01 00:37:04;;;;;;;75.60;36.90;;;;;;;1.65;95.79;97622.34;4984498;28;20062;-70
2021/01/01 00:39:29;;;;;;;122.97;62.15;;;;;;;1.76;95.21;97630.84;4984906;28;20038;-70
2021/01/01 00:41:55;;;;;;;109.03;57.60;;;;;;;1.68;95.06;97637.66;4985817;28;20046;-70
2021/01/01 00:44:21;;;;;;;100.00;52.97;;;;;;;1.62;95.25;97639.38;4985061;28;20069;-71
2021/01/01 00:46:46;;;;;;;91.45;44.92;;;;;;;1.54;95.26;97644.47;4984669;28;20030;-71
2021/01/01 00:49:11;;;;;;;74.93;39.42;;;;;;;1.47;95.49;97635.13;4976604;28;21292;-71
2021/01/01 00:51:37;;;;;;;77.38;40.88;;;;;;;1.34;95.48;97635.97;4971410;28;20575;-71
2021/01/01 00:54:02;;;;;;;61.25;32.65;;;;;;;1.14;95.84;97639.38;4971723;28;20030;-70
2021/01/01 00:56:29;;;;;;;67.25;36.22;;;;;;;1.04;96.24;97652.97;4971165;28;20129;-71
2021/01/01 00:58:56;;;;;;;58.88;31.83;;;;;;;0.97;96.52;97656.38;4971481;28;20026;-70
2021/01/01 07:00:13;;;;;;;29.20;16.58;;;;;;;1.93;94.34;97893.03;6077310;23;20115;-71
2021/01/01 07:02:38;;;;;;;47.95;25.50;;;;;;;2.15;93.78;97893.91;5011543;28;20083;-71
2021/01/01 07:05:04;;;;;;;37.47;21.70;;;;;;;2.21;92.60;97894.75;5012541;28;20040;-72
2021/01/01 07:07:39;;;;;;;20.40;13.65;;;;;;;2.18;92.26;97892.22;5012633;28;20491;-72
2021/01/01 07:10:07;;;;;;;16.52;11.23;;;;;;;2.22;91.81;97896.47;5012516;28;20025;-72
2021/01/01 07:12:32;;;;;;;15.00;9.77;;;;;;;2.02;92.03;97903.25;4992849;28;20036;-71
2021/01/01 07:14:58;;;;;;;11.00;8.43;;;;;;;2.17;92.17;97902.44;4993306;28;20026;-74
2021/01/01 07:17:23;;;;;;;13.88;9.15;;;;;;;1.99;92.69;97903.28;4992855;28;20022;-74
2021/01/01 07:19:49;;;;;;;14.85;10.18;;;;;;;1.93;93.59;97903.22;4992863;28;20147;-74
2021/01/01 07:22:14;;;;;;;15.50;8.90;;;;;;;2.00;92.37;97910.06;4992638;28;20375;-75
2021/01/01 07:24:42;;;;;;;10.85;6.93;;;;;;;1.99;93.02;97908.38;4992660;28;20037;-74
2021/01/01 07:27:09;;;;;;;9.85;6.82;;;;;;;2.07;91.53;97904.13;4992801;28;20068;-75
2021/01/01 07:29:34;;;;;;;8.48;6.93;;;;;;;1.94;92.28;97915.19;4992790;28;20390;-74
2021/01/01 07:31:59;;;;;;;9.77;7.72;;;;;;;2.12;92.50;97919.44;4992490;28;20026;-75
2021/01/01 07:34:25;;;;;;;9.07;7.28;;;;;;;2.13;93.61;97927.16;4991426;28;20066;-74
2021/01/01 07:36:53;;;;;;;11.68;7.95;;;;;;;2.07;91.81;97932.22;4992636;28;20120;-74
2021/01/01 07:39:26;;;;;;;10.68;7.40;;;;;;;2.11;93.19;97928.81;4992526;28;20447;-75
2021/01/01 07:42:02;;;;;;;13.98;8.25;;;;;;;2.13;93.29;97936.47;4992525;28;20109;-75
2021/01/01 07:44:28;;;;;;;12.40;8.82;;;;;;;2.15;93.09;97942.47;4992515;28;20026;-74
2021/01/01 07:46:53;;;;;;;14.15;8.63;;;;;;;2.21;92.65;97950.13;4992664;28;20049;-75
2021/01/01 07:49:18;;;;;;;12.00;8.95;;;;;;;1.97;93.04;97943.28;4992615;28;20125;-75
2021/01/01 07:51:44;;;;;;;11.48;8.45;;;;;;;2.14;94.32;97941.63;4992187;28;20022;-75
2021/01/01 07:54:09;;;;;;;15.93;9.77;;;;;;;2.08;93.48;97949.28;4991270;28;20037;-75
2021/01/01 07:56:34;;;;;;;16.65;9.45;;;;;;;1.96;92.89;97937.31;4992329;28;20529;-75
2021/01/01 07:59:00;;;;;;;12.82;8.45;;;;;;;2.00;93.32;97950.94;4993810;28;20030;-74
2021/01/01 08:01:26;;;;;;;13.90;8.30;;;;;;;1.97;92.80;97956.03;4996052;28;20113;-74
2021/01/01 08:03:51;;;;;;;11.90;8.43;;;;;;;1.97;91.88;97959.44;4996429;28;20075;-75
2021/01/01 08:06:18;;;;;;;14.70;9.20;;;;;;;1.89;93.06;97963.69;4996197;28;20027;-74
2021/01/01 08:08:43;;;;;;;14.57;8.77;;;;;;;1.82;93.36;97959.41;4996242;28;20101;-75
2021/01/01 08:11:08;;;;;;;13.52;8.40;;;;;;;1.90;93.87;97960.28;4995960;28;20142;-74
2021/01/01 08:13:35;;;;;;;12.95;8.57;;;;;;;1.86;93.49;97958.56;4994978;28;20022;-74
2021/01/01 08:16:12;;;;;;;10.63;7.93;;;;;;;1.94;92.34;97971.38;4996104;28;20077;-74
2021/01/01 08:18:37;;;;;;;12.60;8.35;;;;;;;1.98;92.64;97978.19;4996038;28;20027;-74
2021/01/01 08:21:04;;;;;;;13.98;8.45;;;;;;;1.95;92.17;97973.06;4995744;28;20052;-74
2021/01/01 08:23:45;;;;;;;13.25;8.32;;;;;;;2.18;92.99;97971.44;4994773;28;20368;-74
2021/01/01 08:26:11;;;;;;;12.07;8.27;;;;;;;2.14;93.00;97971.44;4995952;28;20038;-74
2021/01/01 08:28:37;;;;;;;13.35;9.70;;;;;;;2.30;92.24;97976.56;4978520;28;20392;-75
2021/01/01 08:31:05;;;;;;;12.80;7.55;;;;;;;2.27;92.00;97976.56;4995555;28;20112;-74
2021/01/01 08:33:37;;;;;;;12.10;7.65;;;;;;;2.16;90.91;97973.13;4995867;28;20456;-74
2021/01/01 08:36:07;;;;;;;10.43;7.22;;;;;;;2.10;91.26;97977.38;4995731;28;20033;-74
2021/01/01 08:38:34;;;;;;;11.52;6.90;;;;;;;2.03;90.88;97972.25;4994755;28;20022;-74
2021/01/01 08:41:00;;;;;;;12.18;8.20;;;;;;;2.06;92.09;97979.91;4995409;28;20029;-74
2021/01/01 08:43:26;;;;;;;15.50;7.10;;;;;;;2.10;90.94;97988.44;4994474;28;20491;-74
2021/01/01 08:45:52;;;;;;;11.40;7.65;;;;;;;2.23;90.20;97985.09;4994268;28;20030;-74
2021/01/01 08:48:19;;;;;;;8.63;6.97;;;;;;;2.19;89.88;97998.69;4995641;28;20501;-74
2021/01/01 08:50:47;;;;;;;12.88;7.65;;;;;;;2.21;89.81;98004.66;4995339;28;20034;-74
2021/01/01 08:53:13;;;;;;;10.88;6.93;;;;;;;2.26;88.51;98000.41;4995467;28;20482;-74
2021/01/01 08:55:38;;;;;;;9.35;6.32;;;;;;;2.41;90.30;97998.72;4994244;28;20034;-74
2021/01/01 08:58:11;;;;;;;8.68;6.10;;;;;;;2.51;87.47;98008.13;4995259;28;20028;-74
2021/01/01 09:00:40;;;;;;;8.02;6.10;;;;;;;2.47;87.83;98008.97;4993796;28;20085;-74
2021/01/01 09:03:06;;;;;;;6.78;6.00;;;;;;;2.49;88.97;98007.28;4995377;28;20383;-74
2021/01/01 09:05:32;;;;;;;11.13;6.18;;;;;;;2.43;88.38;98010.69;4995365;28;20030;-74
2021/01/01 09:08:13;;;;;;;7.05;5.45;;;;;;;2.47;86.39;98014.09;4995134;28;20038;-74
2021/01/01 09:10:41;;;;;;;7.13;5.60;;;;;;;2.51;87.72;98008.13;4994576;28;20073;-74
2021/01/01 09:13:12;;;;;;;8.27;5.50;;;;;;;2.54;87.24;98014.09;4995016;28;20038;-74
2021/01/01 09:15:38;;;;;;;6.10;5.50;;;;;;;2.46;86.38;98012.38;4995177;28;20026;-74
2021/01/01 09:18:05;;;;;;;6.82;5.68;;;;;;;2.52;86.69;98007.28;4995032;28;20023;-74
2021/01/01 09:20:31;;;;;;;7.40;5.50;;;;;;;2.58;86.23;98012.41;4993747;28;20081;-74
2021/01/01 09:23:01;;;;;;;7.65;5.38;;;;;;;2.66;86.23;98009.84;4994771;28;20054;-74
2021/01/01 09:25:29;;;;;;;6.82;5.80;;;;;;;2.64;87.57;98016.66;4993728;28;20023;-75
2021/01/01 09:27:56;;;;;;;6.93;5.53;;;;;;;2.87;84.34;98014.97;4993513;28;20018;-74
2021/01/01 09:30:23;;;;;;;6.32;5.18;;;;;;;3.01;84.25;98017.53;4994815;28;20034;-74
2021/01/01 09:32:51;;;;;;;6.47;5.35;;;;;;;2.95;84.46;98020.09;4993200;28;20026;-75
2021/01/01 09:35:17;;;;;;;7.82;5.65;;;;;;;2.90;83.74;98024.34;4994812;28;20077;-74
2021/01/01 09:37:56;;;;;;;13.75;8.57;;;;;;;2.91;83.54;98028.63;4994448;28;20034;-74
2021/01/01 09:40:24;;;;;;;81.32;32.92;;;;;;;3.01;84.07;98030.34;4994455;28;20457;-74
2021/01/01 09:42:49;;;;;;;14.27;8.63;;;;;;;2.98;83.74;98032.88;4994331;28;20084;-74
2021/01/01 09:45:15;;;;;;;9.50;7.10;;;;;;;2.99;85.21;98029.47;4994642;28;20042;-74
2021/01/01 09:47:41;;;;;;;6.57;5.78;;;;;;;2.97;84.38;98036.31;4994480;28;20101;-74
2021/01/01 09:50:07;;;;;;;7.13;5.93;;;;;;;2.79;84.31;98037.97;4994491;28;20541;-74
2021/01/01 09:52:33;;;;;;;8.40;6.28;;;;;;;2.68;86.75;98034.56;4994143;28;20414;-74
2021/01/01 09:54:59;;;;;;;8.10;5.85;;;;;;;2.89;85.00;98043.13;4994332;28;20032;-75
2021/01/01 09:57:24;;;;;;;10.68;7.35;;;;;;;2.75;85.02;98041.38;4992945;28;20077;-74
2021/01/01 09:59:49;;;;;;;7.40;5.90;;;;;;;2.65;86.08;98044.78;4994324;28;20117;-74
2021/01/01 10:02:15;;;;;;;6.68;5.45;;;;;;;2.78;85.54;98046.53;4993981;28;20030;-74
2021/01/01 10:04:40;;;;;;;8.82;6.38;;;;;;;2.89;83.81;98043.13;4994219;28;20058;-74
2021/01/01 10:07:05;;;;;;;14.55;7.95;;;;;;;2.86;83.08;98035.47;4994121;28;20391;-74
2021/01/01 10:09:31;;;;;;;9.23;6.35;;;;;;;3.00;84.04;98036.31;4993953;28;20432;-74
2021/01/01 10:11:57;;;;;;;10.90;7.22;;;;;;;3.21;83.82;98040.56;4993813;28;20050;-74
2021/01/01 10:14:22;;;;;;;16.63;10.07;;;;;;;3.19;82.77;98035.47;4994007;28;20076;-74
2021/01/01 10:16:49;;;;;;;30.00;18.15;;;;;;;3.15;83.55;98041.41;4993885;28;20399;-74
2021/01/01 10:19:15;;;;;;;10.18;6.45;;;;;;;3.10;82.26;98038.00;4993862;28;20069;-74
2021/01/01 10:21:41;;;;;;;9.60;6.40;;;;;;;3.14;82.61;98041.41;4992859;28;20034;-74
2021/01/01 10:24:06;;;;;;;11.43;7.72;;;;;;;3.21;82.57;98043.97;4993538;28;20495;-74
2021/01/01 10:26:31;;;;;;;18.25;10.30;;;;;;;3.32;82.76;98044.81;4993766;28;20034;-74
2021/01/01 10:28:57;;;;;;;47.88;24.13;;;;;;;3.42;80.88;98049.91;4993626;28;20026;-74
2021/01/01 10:31:23;;;;;;;44.42;22.35;;;;;;;3.44;80.88;98050.78;4993467;28;20531;-75
2021/01/01 10:33:48;;;;;;;15.50;9.48;;;;;;;3.51;81.75;98049.91;4993502;28;20161;-75
2021/01/01 10:36:13;;;;;;;21.67;12.05;;;;;;;3.81;80.80;98038.72;4993669;28;20023;-74
2021/01/01 10:38:39;;;;;;;5.45;4.90;;;;;;;3.88;78.72;98034.47;4993324;28;20042;-76
2021/01/01 10:41:04;;;;;;;6.80;5.50;;;;;;;4.46;77.42;98029.06;4993259;28;20038;-76
2021/01/01 10:43:29;;;;;;;7.03;4.97;;;;;;;4.73;76.46;98028.00;4993367;28;20100;-76
2021/01/01 10:45:55;;;;;;;8.10;4.93;;;;;;;5.12;76.69;98032.00;4992190;28;20030;-76
2021/01/01 10:48:20;;;;;;;9.05;5.45;;;;;;;5.25;74.53;98025.91;4993393;28;20052;-76
2021/01/01 10:50:45;;;;;;;6.85;5.55;;;;;;;5.01;76.01;98036.38;4983112;28;20034;-75
2021/01/01 10:53:11;;;;;;;6.82;5.40;;;;;;;4.98;77.60;98028.69;4979026;28;20101;-76
2021/01/01 10:55:36;;;;;;;45.47;23.40;;;;;;;4.72;74.63;98031.44;4977902;28;20053;-76
2021/01/01 10:58:01;;;;;;;10.07;6.97;;;;;;;4.34;75.37;98032.53;4978725;28;20037;-75
2021/01/01 11:00:27;;;;;;;9.40;7.55;;;;;;;4.27;74.86;98029.16;4978656;28;20035;-75
2021/01/01 11:02:52;;;;;;;8.70;7.80;;;;;;;4.29;77.43;98026.56;4976540;28;20026;-75
2021/01/01 11:05:17;;;;;;;6.10;5.22;;;;;;;4.30;77.35;98026.59;4978452;28;20113;-76
2021/01/01 11:07:43;;;;;;;6.43;5.78;;;;;;;4.14;76.96;98022.38;4978350;28;20737;-76
2021/01/01 11:10:09;;;;;;;7.57;5.55;;;;;;;4.09;76.80;98026.66;4977298;28;20151;-75
2021/01/01 11:12:34;;;;;;;6.68;5.15;;;;;;;4.05;76.42;98019.84;4978499;28;20468;-75
2021/01/01 12:24:20;;;;;;;7.53;5.35;;;;;;;3.98;77.46;97987.44;4981130;28;20778;-79
2021/01/01 12:26:46;;;;;;;8.07;6.78;;;;;;;3.99;76.98;97986.56;4977681;28;20034;-76
2021/01/01 12:29:11;;;;;;;7.43;6.10;;;;;;;4.00;78.14;97976.28;4977146;28;20053;-76
2021/01/01 12:31:39;;;;;;;9.20;7.22;;;;;;;3.95;77.52;97990.00;4977424;28;20026;-76
2021/01/01 12:34:04;;;;;;;8.82;6.22;;;;;;;3.37;78.85;97991.03;4977631;28;20065;-76
2021/01/01 12:36:30;;;;;;;8.77;6.72;;;;;;;3.70;79.47;97990.09;4977347;28;20125;-76
2021/01/01 12:38:55;;;;;;;10.02;8.02;;;;;;;3.96;77.79;97981.44;4977483;28;20022;-76
2021/01/01 12:41:20;;;;;;;8.45;6.45;;;;;;;3.93;76.63;97992.56;4977149;28;20031;-76
2021/01/01 12:43:46;;;;;;;9.00;6.25;;;;;;;3.89;78.00;97990.03;4977590;28;20074;-76
2021/01/01 12:46:12;;;;;;;7.63;6.28;;;;;;;3.98;78.61;98001.09;4980202;28;20120;-77
2021/01/01 12:48:37;;;;;;;8.40;5.80;;;;;;;3.80;75.75;98002.00;4975228;28;20479;-76
2021/01/01 12:51:03;;;;;;;13.35;8.85;;;;;;;3.55;77.47;97998.69;5000088;28;20034;-76
2021/01/01 12:53:28;;;;;;;7.90;6.10;;;;;;;3.44;77.07;97997.00;4981196;28;20807;-77
2021/01/01 12:55:53;;;;;;;7.07;5.70;;;;;;;3.53;78.53;98000.41;4980674;28;20026;-77
2021/01/01 12:58:19;;;;;;;6.38;5.68;;;;;;;3.47;78.15;98002.97;4980749;28;21093;-77
2021/01/01 13:00:44;;;;;;;17.80;8.48;;;;;;;3.40;80.85;98006.41;4980171;28;20074;-77
2021/01/01 13:03:09;;;;;;;18.98;8.30;;;;;;;3.55;82.42;98000.38;4980565;28;20479;-77
2021/01/01 13:05:34;;;;;;;16.67;9.80;;;;;;;3.78;80.72;98008.88;4980689;28;20081;-77
2021/01/01 13:08:00;;;;;;;11.98;8.27;;;;;;;4.12;77.09;98003.59;5000481;28;20033;-77
2021/01/01 13:10:26;;;;;;;9.23;6.70;;;;;;;4.13;77.42;98007.84;4980410;28;20036;-75
2021/01/01 13:12:52;;;;;;;9.00;6.95;;;;;;;4.49;75.20;98005.94;4980686;28;20038;-77
2021/01/01 13:15:17;;;;;;;8.27;6.40;;;;;;;4.47;74.13;98007.69;5001094;28;20447;-70
2021/01/01 13:17:42;;;;;;;11.25;6.88;;;;;;;4.44;73.51;98010.25;4980196;28;20027;-70
2021/01/01 13:20:09;;;;;;;8.07;6.22;;;;;;;4.26;76.12;98006.94;4980227;28;20162;-70
2021/01/01 13:22:34;;;;;;;10.48;7.00;;;;;;;4.32;73.44;98006.06;4978929;28;20513;-70
2021/01/01 13:24:59;;;;;;;9.48;7.13;;;;;;;4.07;73.54;98010.47;4979361;28;20034;-72
2021/01/01 13:27:27;;;;;;;9.60;6.80;;;;;;;4.00;75.85;98014.75;4980263;28;20057;-68
2021/01/01 13:29:54;;;;;;;7.80;6.55;;;;;;;4.04;76.73;98020.72;4980139;28;20427;-69
2021/01/01 13:32:19;;;;;;;11.35;7.32;;;;;;;4.05;77.64;98024.97;4989903;28;20027;-69
2021/01/01 13:34:45;;;;;;;10.90;8.57;;;;;;;3.94;76.23;98024.19;4979979;28;20035;-69
2021/01/01 13:37:11;;;;;;;21.83;14.77;;;;;;;4.01;75.77;98030.97;4979896;28;20775;-69
2021/01/01 13:39:36;;;;;;;15.50;9.13;;;;;;;3.81;80.62;98029.31;4979812;28;20045;-69
2021/01/01 13:42:01;;;;;;;11.10;7.20;;;;;;;3.76;77.50;98031.06;4979293;28;20034;-69
2021/01/01 13:44:27;;;;;;;9.02;7.20;;;;;;;3.78;78.50;98029.34;4979728;28;20113;-70
2021/01/01 13:46:52;;;;;;;8.95;7.22;;;;;;;4.13;75.91;98030.94;4979839;28;20057;-70
2021/01/01 13:49:18;;;;;;;9.82;7.25;;;;;;;4.07;76.29;98033.53;4979799;28;20100;-69
2021/01/01 13:51:43;;;;;;;8.48;6.90;;;;;;;4.25;75.18;98028.28;4979318;28;20066;-70
2021/01/01 13:54:08;;;;;;;8.48;6.70;;;;;;;3.98;78.64;98036.13;4979638;28;20543;-70
2021/01/01 13:56:34;;;;;;;10.15;7.40;;;;;;;3.83;79.33;98034.47;4979548;28;20038;-70
2021/01/01 13:58:59;;;;;;;13.70;9.13;;;;;;;3.95;78.96;98041.25;4979676;28;20729;-70
2021/01/01 14:01:25;;;;;;;14.35;9.77;;;;;;;4.02;77.31;98042.94;4979085;28;20045;-70
2021/01/01 14:03:54;;;;;;;10.98;7.97;;;;;;;4.12;76.28;98044.63;4979501;28;20034;-70
2021/01/01 14:06:33;;;;;;;11.30;7.95;;;;;;;3.90;78.75;98042.97;4979320;28;20038;-70
2021/01/01 14:09:03;;;;;;;10.43;7.38;;;;;;;3.80;78.78;98043.00;4979649;28;20395;-69
2021/01/01 14:11:29;;;;;;;11.98;7.57;;;;;;;3.43;79.14;98046.50;4977518;28;20030;-70
2021/01/01 14:13:54;;;;;;;11.55;7.75;;;;;;;3.99;76.81;98050.63;4979223;28;20041;-70
2021/01/01 14:16:20;;;;;;;9.35;7.30;;;;;;;3.77;76.57;98048.16;4979283;28;20041;-70
2021/01/01 14:18:45;;;;;;;11.00;7.78;;;;;;;4.21;75.31;98049.69;4979052;28;20078;-69
2021/01/01 14:21:11;;;;;;;11.02;7.90;;;;;;;4.12;74.68;98049.75;4979326;28;20645;-70
2021/01/01 14:23:37;;;;;;;12.10;8.90;;;;;;;3.44;79.42;98055.91;4979304;28;20093;-69
2021/01/01 14:26:03;;;;;;;11.23;8.27;;;;;;;3.67;76.82;98056.69;4979188;28;20054;-68
2021/01/01 14:28:28;;;;;;;12.90;9.60;;;;;;;3.51;79.19;98052.47;4978931;28;20054;-69
2021/01/01 14:30:54;;;;;;;12.18;8.70;;;;;;;3.62;78.11;98053.28;4978958;28;20517;-68
2021/01/01 14:33:20;;;;;;;11.70;7.88;;;;;;;3.84;77.11;98049.81;4978782;28;20039;-68
2021/01/01 14:35:47;;;;;;;10.27;8.05;;;;;;;3.64;76.78;98061.00;4978935;28;20048;-68
2021/01/01 14:38:12;;;;;;;11.65;8.35;;;;;;;3.67;76.93;98051.56;4978643;28;20081;-68
2021/01/01 14:40:39;;;;;;;11.65;8.13;;;;;;;3.91;77.03;98049.81;4978835;28;20093;-68
2021/01/01 14:43:04;;;;;;;9.93;7.45;;;;;;;3.88;76.09;98043.00;4979061;28;20050;-69
2021/01/01 14:45:29;;;;;;;14.48;8.55;;;;;;;3.82;74.86;98038.75;4978826;28;20132;-69
2021/01/01 14:47:55;;;;;;;31.20;19.10;;;;;;;3.97;76.84;98045.53;4978763;28;20054;-68
2021/01/01 14:50:20;;;;;;;14.45;9.90;;;;;;;3.80;77.50;98043.00;4978657;28;20034;-69
2021/01/01 14:52:46;;;;;;;9.38;7.50;;;;;;;3.44;76.06;98053.34;4976823;28;20053;-68
2021/01/01 14:55:11;;;;;;;12.57;8.77;;;;;;;3.11;76.76;98049.94;4976531;28;20041;-68
2021/01/01 14:57:38;;;;;;;20.08;9.52;;;;;;;3.16;79.03;98058.47;4977987;28;20030;-69
2021/01/01 15:00:08;;;;;;;13.93;9.10;;;;;;;3.00;78.96;98061.91;4978604;28;20038;-69
2021/01/01 15:02:33;;;;;;;17.08;10.32;;;;;;;2.84;79.39;98066.97;4978319;28;20030;-68
2021/01/01 15:04:58;;;;;;;12.73;8.15;;;;;;;2.95;80.55;98063.56;4978179;28;20089;-69
2021/01/01 15:07:24;;;;;;;15.18;8.95;;;;;;;2.83;82.92;98072.09;4978137;28;20033;-69
2021/01/01 15:09:50;;;;;;;11.93;8.57;;;;;;;2.74;81.69;98075.50;4978096;28;20022;-68
2021/01/01 15:12:15;;;;;;;18.60;9.50;;;;;;;2.77;80.95;98070.41;4978164;28;20155;-68
2021/01/01 15:14:40;;;;;;;16.65;10.32;;;;;;;2.76;80.29;98073.81;4978183;28;20034;-69
2021/01/01 15:17:06;;;;;;;14.90;10.32;;;;;;;2.69;82.53;98072.06;4978031;28;20779;-69
2021/01/01 15:19:32;;;;;;;15.15;9.57;;;;;;;2.55;84.43;98078.88;4978050;28;20031;-69
2021/01/01 15:21:57;;;;;;;16.08;10.38;;;;;;;2.55;83.83;98079.72;4977808;28;20037;-68
2021/01/01 15:24:22;;;;;;;17.33;9.85;;;;;;;2.50;83.24;98085.66;4993173;28;20036;-69
2021/01/01 15:26:48;;;;;;;15.02;10.05;;;;;;;2.41;82.10;98077.97;4978170;28;20089;-68
2021/01/01 15:29:13;;;;;;;14.85;9.95;;;;;;;2.17;83.60;98079.59;4977942;28;20022;-68
2021/01/01 15:31:39;;;;;;;21.52;14.38;;;;;;;1.83;86.16;98085.38;4978097;28;20030;-69
2021/01/01 15:34:05;;;;;;;31.25;16.52;;;;;;;1.80;87.05;98091.34;4977945;28;20038;-67
2021/01/01 15:36:31;;;;;;;17.70;11.80;;;;;;;1.70;86.84;98095.56;4977853;28;20495;-68
2021/01/01 15:38:57;;;;;;;18.95;11.07;;;;;;;1.59;86.91;98097.16;4978058;28;20123;-73
2021/01/01 15:41:22;;;;;;;22.13;12.15;;;;;;;1.55;87.04;98100.56;4978154;28;20088;-77
2021/01/01 15:43:48;;;;;;;28.08;12.90;;;;;;;1.51;87.09;98114.16;4977612;28;20035;-65
2021/01/01 15:46:14;;;;;;;26.95;13.45;;;;;;;1.32;87.89;98104.66;4977845;28;20522;-67
2021/01/01 15:48:40;;;;;;;19.90;11.98;;;;;;;1.21;88.11;98110.53;4977545;28;20022;-70
2021/01/01 15:51:06;;;;;;;23.42;13.13;;;;;;;1.26;87.63;98113.97;4976479;28;20057;-70
2021/01/01 15:53:31;;;;;;;24.25;13.50;;;;;;;1.18;88.11;98115.59;4976374;28;20564;-68
2021/01/01 15:55:57;;;;;;;17.90;11.70;;;;;;;1.28;86.77;98112.25;4977605;28;21510;-69
2021/01/01 15:58:22;;;;;;;18.58;11.07;;;;;;;1.21;87.52;98113.06;4977598;28;20023;-67
2021/01/01 16:00:48;;;;;;;19.38;11.48;;;;;;;0.96;88.23;98109.44;4977235;28;20041;-68
2021/01/01 16:03:13;;;;;;;16.98;10.75;;;;;;;0.91;88.56;98110.22;4977524;28;21015;-68
2021/01/01 16:05:38;;;;;;;15.82;9.75;;;;;;;0.94;88.47;98111.13;4948467;28;20092;-69
2021/01/01 16:08:04;;;;;;;17.92;12.13;;;;;;;0.80;88.67;98114.38;4976755;28;21305;-69
2021/01/01 16:10:29;;;;;;;60.17;34.00;;;;;;;0.70;89.16;98111.72;4936461;28;20539;-69
2021/01/01 16:12:55;;;;;;;27.50;17.55;;;;;;;0.72;88.43;98115.13;4964118;28;20082;-69
2021/01/01 16:15:23;;;;;;;20.92;12.02;;;;;;;0.67;88.20;98121.88;4936467;28;20041;-69
2021/01/01 16:17:48;;;;;;;75.18;38.45;;;;;;;0.42;89.33;98125.88;4964881;28;20019;-69
2021/01/01 16:20:13;;;;;;;81.00;43.95;;;;;;;0.30;90.23;98125.75;4937303;28;20057;-69
2021/01/01 16:22:39;;;;;;;76.85;41.50;;;;;;;0.34;90.30;98126.59;4976596;28;20026;-69
2021/01/01 16:25:05;;;;;;;44.17;25.35;;;;;;;0.22;91.11;98130.72;4937657;28;20055;-69
2021/01/01 16:27:31;;;;;;;31.90;18.73;;;;;;;0.28;91.52;98126.53;4962168;28;20487;-69
2021/01/01 16:29:56;;;;;;;24.52;15.80;;;;;;;0.19;91.07;98128.16;4936219;28;20038;-69
2021/01/01 16:32:22;;;;;;;36.92;19.42;;;;;;;0.22;90.79;98132.41;4961470;28;21070;-68
2021/01/01 16:34:47;;;;;;;26.40;15.63;;;;;;;0.34;90.64;98136.81;4940295;28;20113;-69
2021/01/01 16:37:13;;;;;;;51.45;24.63;;;;;;;0.32;90.54;98141.03;4968841;28;20488;-69
2021/01/01 16:39:38;;;;;;;45.03;23.63;;;;;;;0.20;91.42;98139.19;4960157;28;20037;-69
2021/01/01 16:42:04;;;;;;;26.95;16.30;;;;;;;0.18;91.55;98149.34;4937312;28;20504;-69
2021/01/01 16:44:29;;;;;;;27.48;15.70;;;;;;;0.22;91.70;98143.47;4959726;28;20035;-69
2021/01/01 16:46:55;;;;;;;25.75;16.10;;;;;;;0.08;91.56;98150.06;4946630;28;20134;-69
2021/01/01 16:49:21;;;;;;;22.30;14.18;;;;;;;0.08;91.42;98149.22;4960726;28;21126;-68
2021/01/01 16:51:48;;;;;;;39.05;22.27;;;;;;;-0.09;91.59;98152.41;4937245;28;20428;-68
2021/01/01 16:54:18;;;;;;;32.03;19.17;;;;;;;-0.07;91.34;98152.41;4961383;28;20037;-69
2021/01/01 16:56:45;;;;;;;38.05;19.42;;;;;;;-0.08;91.90;98153.25;4945021;28;20052;-68
2021/01/01 16:59:11;;;;;;;30.40;17.58;;;;;;;-0.04;91.78;98149.91;4961273;28;20026;-69
2021/01/01 17:02:08;;;;;;;31.95;17.98;;;;;;;-0.21;92.19;98153.91;4940409;28;20057;-69
2021/01/01 17:04:34;;;;;;;29.85;16.65;;;;;;;-0.24;92.31;98158.94;4966735;28;20038;-69
2021/01/01 17:07:03;;;;;;;35.75;19.35;;;;;;;-0.21;92.78;98156.44;4946761;28;20068;-69
2021/01/01 17:09:29;;;;;;;33.22;19.65;;;;;;;-0.22;92.47;98159.84;4960924;28;20062;-69
2021/01/01 17:11:54;;;;;;;30.75;16.73;;;;;;;-0.32;92.75;98162.25;4932339;28;20038;-69
2021/01/01 17:14:20;;;;;;;24.77;15.57;;;;;;;-0.27;92.77;98173.34;4961249;28;20039;-69
2021/01/01 17:16:46;;;;;;;49.90;25.95;;;;;;;-0.48;92.91;98167.94;4937815;28;20042;-70
2021/01/01 17:19:13;;;;;;;37.92;22.20;;;;;;;-0.36;92.63;98160.47;4961054;28;20069;-70
2021/01/01 17:21:38;;;;;;;35.95;21.38;;;;;;;-0.50;93.46;98161.09;4941092;28;20053;-69
2021/01/01 17:24:04;;;;;;;30.85;20.02;;;;;;;-0.56;93.51;98175.44;4961940;28;20039;-69
2021/01/01 17:26:30;;;;;;;32.15;18.85;;;;;;;-0.55;93.46;98172.06;4957743;28;20574;-69
2021/01/01 17:28:56;;;;;;;32.85;18.55;;;;;;;-0.57;93.21;98170.34;4963666;28;20027;-69
2021/01/01 17:31:24;;;;;;;35.20;18.92;;;;;;;-0.58;93.82;98177.13;4950923;28;20125;-69
2021/01/01 17:33:52;;;;;;;42.92;21.67;;;;;;;-0.55;94.01;98176.28;4963368;28;20065;-69
2021/01/01 17:36:19;;;;;;;38.20;20.75;;;;;;;-0.52;93.50;98181.44;4936451;28;20051;-69
2021/01/01 17:38:48;;;;;;;43.75;22.52;;;;;;;-0.46;93.18;98181.53;4960323;28;20023;-69
2021/01/01 17:41:17;;;;;;;36.92;20.63;;;;;;;-0.21;94.10;98181.91;4938525;28;20054;-69
2021/01/01 17:43:43;;;;;;;35.33;21.30;;;;;;;-0.15;94.28;98184.53;4963081;28;20404;-69
2021/01/01 17:46:10;;;;;;;29.05;16.92;;;;;;;-0.10;93.32;98190.56;4948587;28;20061;-69
2021/01/01 17:48:35;;;;;;;28.70;16.45;;;;;;;-0.12;94.45;98192.22;4966913;28;20551;-69
2021/01/01 17:51:03;;;;;;;29.52;16.77;;;;;;;-0.04;95.04;98195.75;4938820;28;20054;-69
2021/01/01 17:53:29;;;;;;;32.28;16.77;;;;;;;-0.05;94.24;98196.56;4963821;28;20027;-69
2021/01/01 17:55:55;;;;;;;32.35;17.33;;;;;;;-0.07;93.17;98198.25;4939760;28;20039;-69
2021/01/01 17:58:20;;;;;;;32.65;18.05;;;;;;;-0.06;93.26;98189.75;4969147;28;20029;-69
2021/01/01 18:00:45;;;;;;;29.92;18.20;;;;;;;-0.10;92.83;98200.72;4943876;28;20058;-69
2021/01/01 18:03:12;;;;;;;37.17;19.98;;;;;;;-0.07;93.60;98200.78;4970867;28;20026;-69
2021/01/01 18:05:37;;;;;;;60.60;30.50;;;;;;;-0.02;94.25;98205.09;4939234;28;20046;-69
2021/01/01 18:08:02;;;;;;;73.13;31.25;;;;;;;-0.04;93.64;98209.34;4965955;28;20451;-69
2021/01/01 18:10:28;;;;;;;70.57;32.40;;;;;;;-0.02;93.29;98206.81;4941290;28;20468;-70
2021/01/01 18:12:53;;;;;;;74.50;33.33;;;;;;;-0.10;93.02;98205.81;4973621;28;20038;-69
2021/01/01 18:15:19;;;;;;;57.38;28.63;;;;;;;0.06;93.12;98202.69;4939250;28;20116;-69
2021/01/01 18:17:44;;;;;;;100.53;38.92;;;;;;;0.19;94.09;98212.22;4973773;28;20023;-69
2021/01/01 18:20:10;;;;;;;64.55;27.70;;;;;;;0.13;93.92;98213.81;4935565;28;20101;-69
2021/01/01 18:22:41;;;;;;;57.53;26.85;;;;;;;0.10;94.01;98218.88;4959515;28;20058;-71
2021/01/01 18:25:11;;;;;;;125.68;50.03;;;;;;;0.00;92.93;98215.34;4937214;28;20030;-76
2021/01/01 18:27:36;;;;;;;;;;;;;;;0.10;94.17;98214.63;4975206;28;20739;-69
2021/01/01 18:30:07;;;;;;;47.00;23.88;;;;;;;0.07;93.67;98219.66;4936181;28;19918;-69
2021/01/01 18:32:35;;;;;;;46.03;23.58;;;;;;;0.19;94.18;98214.75;4976784;28;20027;-69
2021/01/01 18:35:01;;;;;;;48.45;25.83;;;;;;;0.23;94.19;98221.59;4935828;28;20062;-69